Portada
METAR-TAF:

METAR-TAF

Aeroports :

Aeroport d'Ouagadougou

Ouagadougou, Burkina Faso

latitud: 12-21N, longitud: 001-31W, altitud: 316 m

Observació

L'informe es va fer fa 59 minuts, a les 15:00 UTC
Vent 6 kt del Nord/Nord-Est, variant entre Nord i Est/Nord-Est
Temperatura 35°C
Humitat 13%
Pressió 1009 hPa
Visibilitat: 8000 m

METAR: DFFD 101500Z 03006KT 360V060 8000 NSC 35/02 Q1009 NOSIG

Hora: 15:59 (15:59 UTC)

Pronòstic

L'informe es va fer fa 4 hores i 59 minuts, a les 11:00 UTC
Pronòstic vàlid del 10 a les 12 UTC al 11 a les 18 UTC
Vent 10 kt del Est/Nord-Est
Visibilitat: 6000 m
Temporalment
l' 10 a les 17 UTC al 10 a les 20 UTC
Visibilitat: 4000 m
calitja
Temporalment
l' 11 a les 06 UTC al 11 a les 10 UTC
Visibilitat: 2500 m
calitja

TAF: DFFD 101100Z 1012/1118 06010KT 6000 NSC TEMPO 1017/1020 4000 HZ TEMPO 1106/1110 2500 HZ

Observacions i pronòstics meteorològics de més de 4000 aeroports (METAR i TAF).

Les estacions disponibles són els punts grocs i vermells al mapa.

Posi el ratolí al punt desitjat per veure el nom de l'estació.

Feu clic per veure les observacions i els pronòstics meteorològics.

Per canviar el mapa: feu clic els botons verds amb una creu de color negre per apropar; al botó verd amb un guió per allunyar la imatge; o en les fletxes verdes per a mapes adjacents.


METAR-TAF: